Time;durP1;ratioP1;P1;durP2;ratioP2;P2;SDS_P1;SDS_P2;PMS_P1;PMS_P2;Temp;Humidity;BMP_temperature;BMP_pressure;BME280_temperature;BME280_humidity;BME280_pressure;Samples;Min_cycle;Max_cycle;Signal;HPM_P1;HPM_P2
2022/12/13 00:01:12;;;;;;;10.47;5.50;;;-3.00;96.60;;;;;;5084923;28;20135;-70
2022/12/13 00:03:37;;;;;;;10.30;5.37;;;-2.90;96.90;;;;;;5085683;28;20598;-71
2022/12/13 00:06:05;;;;;;;13.03;5.83;;;-3.00;96.50;;;;;;5065863;28;20154;-71
2022/12/13 00:08:31;;;;;;;7.53;4.40;;;-3.00;96.30;;;;;;5065883;28;20505;-71
2022/12/13 00:11:02;;;;;;;13.43;7.83;;;-3.00;96.60;;;;;;5075002;28;20032;-70
2022/12/13 00:13:28;;;;;;;11.57;5.70;;;-3.00;97.00;;;;;;5081659;28;20025;-71
2022/12/13 00:16:06;;;;;;;7.57;3.37;;;-3.00;97.60;;;;;;5080204;28;20028;-71
2022/12/13 00:18:32;;;;;;;7.47;3.33;;;-3.40;98.70;;;;;;5081056;28;20128;-71
2022/12/13 00:20:58;;;;;;;7.67;3.00;;;-3.50;97.80;;;;;;5072652;28;20024;-71
2022/12/13 00:23:24;;;;;;;5.73;2.50;;;-3.30;97.50;;;;;;5079901;28;20123;-71
2022/12/13 00:25:49;;;;;;;5.03;2.43;;;-3.30;97.80;;;;;;5076946;28;20028;-71
2022/12/13 00:28:16;;;;;;;4.77;2.37;;;-3.20;96.90;;;;;;5077502;28;20032;-70
2022/12/13 00:30:42;;;;;;;9.03;2.77;;;-3.10;96.30;;;;;;5069970;28;20441;-71
2022/12/13 00:33:08;;;;;;;8.00;2.47;;;-2.90;96.20;;;;;;5071742;28;20055;-71
2022/12/13 00:35:39;;;;;;;5.93;2.83;;;-2.70;95.40;;;;;;5069388;28;20121;-71
2022/12/13 00:38:04;;;;;;;6.17;2.77;;;-2.60;95.20;;;;;;5075683;28;20062;-71
2022/12/13 00:40:30;;;;;;;5.87;3.00;;;-2.60;95.50;;;;;;5081618;28;20514;-71
2022/12/13 00:42:56;;;;;;;6.40;3.30;;;-2.60;95.50;;;;;;5073170;28;20115;-71
2022/12/13 00:45:21;;;;;;;9.37;3.50;;;-2.60;95.30;;;;;;5087527;28;20036;-71
2022/12/13 00:47:47;;;;;;;9.90;4.37;;;-2.50;95.90;;;;;;5069314;28;20020;-71
2022/12/13 00:50:12;;;;;;;9.60;4.13;;;-2.60;96.20;;;;;;5079214;28;21298;-71
2022/12/13 00:52:38;;;;;;;10.20;3.67;;;-2.70;96.40;;;;;;5088932;28;20439;-71
2022/12/13 00:55:04;;;;;;;13.00;6.73;;;-2.70;96.70;;;;;;5083765;28;20048;-71
2022/12/13 00:57:30;;;;;;;8.47;5.03;;;-2.80;97.20;;;;;;5080819;28;20043;-71
2022/12/13 00:59:56;;;;;;;8.93;5.17;;;-2.90;97.30;;;;;;5073080;28;20024;-71
2022/12/13 01:02:21;;;;;;;9.40;4.70;;;-2.80;97.60;;;;;;5077806;28;20039;-71
2022/12/13 01:04:50;;;;;;;21.43;11.20;;;-3.00;97.80;;;;;;5087996;28;20032;-71
2022/12/13 01:07:15;;;;;;;7.00;3.23;;;-2.90;97.80;;;;;;5071269;28;20032;-71
2022/12/13 01:09:41;;;;;;;5.80;2.80;;;-2.80;98.20;;;;;;5079732;28;20105;-71
2022/12/13 01:12:07;;;;;;;6.07;2.60;;;-2.90;98.50;;;;;;5071465;28;20035;-71
2022/12/13 01:14:38;;;;;;;5.07;3.10;;;-2.70;97.80;;;;;;5078766;28;20020;-71
2022/12/13 01:17:04;;;;;;;6.37;2.53;;;-2.60;97.20;;;;;;5072562;28;20051;-69
2022/12/13 01:19:31;;;;;;;4.67;2.70;;;-2.60;96.90;;;;;;5078606;28;21052;-69
2022/12/13 01:22:00;;;;;;;8.23;3.13;;;-2.50;96.60;;;;;;5073710;28;20031;-71
2022/12/13 01:24:27;;;;;;;8.67;3.13;;;-2.50;96.90;;;;;;5082727;28;20043;-71
2022/12/13 01:26:53;;;;;;;8.83;3.67;;;-2.60;97.30;;;;;;5076282;28;20052;-69
2022/12/13 01:29:20;;;;;;;7.33;3.80;;;-2.60;96.80;;;;;;5086268;28;20059;-69
2022/12/13 01:31:46;;;;;;;7.90;2.60;;;-2.50;96.90;;;;;;5084917;28;20085;-71
2022/12/13 01:34:14;;;;;;;6.33;2.97;;;-2.40;97.80;;;;;;5072554;28;20038;-69
2022/12/13 01:36:41;;;;;;;6.37;2.63;;;-2.50;97.90;;;;;;5069456;28;20378;-69
2022/12/13 01:39:09;;;;;;;7.33;3.03;;;-2.50;98.00;;;;;;5076490;28;20082;-69
2022/12/13 01:41:34;;;;;;;7.50;3.57;;;-2.60;97.80;;;;;;5078078;28;20035;-69
2022/12/13 01:44:05;;;;;;;7.37;3.37;;;-2.60;97.40;;;;;;5077913;28;20632;-69
2022/12/13 01:46:35;;;;;;;10.33;4.13;;;-2.70;98.20;;;;;;5069122;28;20150;-71
2022/12/13 01:49:08;;;;;;;7.07;4.57;;;-2.90;98.30;;;;;;5083514;28;20048;-71
2022/12/13 01:51:49;;;;;;;6.90;2.97;;;-2.70;97.70;;;;;;5076449;28;20111;-71
2022/12/13 01:54:20;;;;;;;5.97;3.17;;;-2.60;96.50;;;;;;5081541;28;20044;-71
2022/12/13 01:56:53;;;;;;;8.67;4.17;;;-2.60;97.00;;;;;;5078926;28;20055;-71
2022/12/13 01:59:20;;;;;;;8.83;3.50;;;-2.60;96.10;;;;;;5071743;28;20032;-71
2022/12/13 02:01:48;;;;;;;7.60;3.47;;;-2.40;95.60;;;;;;5081568;28;20492;-71
2022/12/13 02:04:22;;;;;;;9.83;4.10;;;-2.40;96.70;;;;;;5076368;28;20113;-71
2022/12/13 02:06:49;;;;;;;9.45;3.00;;;-2.40;96.50;;;;;;5078632;28;20079;-71
2022/12/13 02:09:15;;;;;;;6.97;2.73;;;-2.30;95.90;;;;;;5081216;28;20493;-71
2022/12/13 02:11:42;;;;;;;7.10;3.07;;;-2.40;97.00;;;;;;5078904;28;20031;-71
2022/12/13 02:14:08;;;;;;;6.30;3.30;;;-2.30;96.90;;;;;;5076879;28;20091;-71
2022/12/13 02:16:59;;;;;;;8.73;3.67;;;-2.30;96.70;;;;;;5075787;28;20037;-71
2022/12/13 02:19:57;;;;;;;6.40;2.90;;;-2.40;96.30;;;;;;5080479;28;20115;-71
2022/12/13 02:22:37;;;;;;;8.60;4.17;;;-2.40;96.20;;;;;;5074569;28;20487;-71
2022/12/13 02:25:05;;;;;;;11.83;5.73;;;-2.60;97.30;;;;;;5079610;28;20032;-71
2022/12/13 02:27:41;;;;;;;7.67;4.57;;;-2.80;97.90;;;;;;5090503;28;20062;-71
2022/12/13 02:30:26;;;;;;;8.50;3.00;;;-2.80;98.20;;;;;;5076526;28;20115;-71
2022/12/13 02:33:23;;;;;;;6.38;3.25;;;-2.50;96.60;;;;;;5083479;28;20386;-68
2022/12/13 02:35:59;;;;;;;6.93;3.20;;;-2.40;96.60;;;;;;5082341;28;20024;-71
2022/12/13 02:38:56;;;;;;;7.47;3.27;;;-2.50;96.70;;;;;;5074001;28;20055;-71
2022/12/13 02:41:26;;;;;;;8.87;4.47;;;-2.30;95.60;;;;;;5082664;28;20032;-71
2022/12/13 02:43:58;;;;;;;6.37;3.23;;;-2.20;95.30;;;;;;5084038;28;20040;-71
2022/12/13 02:46:27;;;;;;;7.10;2.97;;;-2.20;95.40;;;;;;5077973;28;20440;-71
2022/12/13 02:48:55;;;;;;;6.80;3.50;;;-2.20;95.30;;;;;;5076700;28;20478;-71
2022/12/13 02:51:22;;;;;;;5.43;2.50;;;-2.20;95.20;;;;;;5085184;28;20035;-71
2022/12/13 02:53:48;;;;;;;5.93;3.17;;;-2.10;95.30;;;;;;5081917;28;20080;-71
2022/12/13 02:56:14;;;;;;;7.23;3.10;;;-2.10;95.80;;;;;;5074928;28;20051;-71
2022/12/13 02:59:00;;;;;;;6.30;2.77;;;-2.10;96.40;;;;;;5087838;28;20085;-71
2022/12/13 03:01:41;;;;;;;9.03;3.53;;;-2.30;97.00;;;;;;5077448;28;20036;-71
2022/12/13 03:04:29;;;;;;;7.83;3.57;;;-2.30;97.80;;;;;;5073307;28;20045;-71
2022/12/13 03:07:23;;;;;;;6.10;3.30;;;-2.20;97.30;;;;;;5083868;28;20402;-71
2022/12/13 03:10:03;;;;;;;6.50;3.00;;;-2.20;98.00;;;;;;5078378;28;20035;-71
2022/12/13 03:15:54;;;;;;;6.63;3.03;;;-2.20;97.00;;;;;;5087511;28;20562;-71
2022/12/13 03:18:22;;;;;;;6.83;3.43;;;-2.30;98.10;;;;;;5079980;28;20479;-71
2022/12/13 03:21:00;;;;;;;7.80;4.13;;;-2.30;97.10;;;;;;5075967;28;20024;-71
2022/12/13 03:23:27;;;;;;;6.43;3.37;;;-2.40;96.30;;;;;;5070927;28;20035;-71
2022/12/13 03:25:55;;;;;;;6.07;3.20;;;-2.40;96.00;;;;;;5071514;28;20060;-71
2022/12/13 03:28:22;;;;;;;6.67;3.07;;;-2.50;95.30;;;;;;5071708;28;20036;-71
2022/12/13 03:30:48;;;;;;;8.63;3.40;;;-2.40;95.20;;;;;;5081028;28;20024;-71
2022/12/13 03:33:13;;;;;;;7.37;3.50;;;-2.40;94.90;;;;;;5088416;28;20092;-71
2022/12/13 03:35:41;;;;;;;8.57;3.90;;;-2.40;95.30;;;;;;5079693;28;20100;-71
2022/12/13 03:38:07;;;;;;;6.23;3.30;;;-2.30;95.60;;;;;;5070020;28;20033;-71
2022/12/13 03:40:33;;;;;;;7.50;3.40;;;-2.30;95.70;;;;;;5084747;28;20481;-71
2022/12/13 03:42:59;;;;;;;5.97;3.27;;;-2.20;95.80;;;;;;5076601;28;20072;-71
2022/12/13 03:45:25;;;;;;;7.43;3.03;;;-2.20;96.40;;;;;;5084440;28;20123;-71
2022/12/13 03:47:51;;;;;;;6.93;3.37;;;-2.40;96.80;;;;;;5080301;28;20619;-71
2022/12/13 03:50:16;;;;;;;6.00;3.13;;;-2.30;97.20;;;;;;5079767;28;20037;-71
2022/12/13 03:52:43;;;;;;;8.23;3.30;;;-2.30;97.30;;;;;;5078038;28;20058;-71
2022/12/13 03:55:09;;;;;;;8.03;3.67;;;-2.30;96.50;;;;;;5083601;28;20147;-71
2022/12/13 03:57:35;;;;;;;6.43;3.43;;;-2.20;96.40;;;;;;5077606;28;20055;-71
2022/12/13 04:00:01;;;;;;;7.07;2.90;;;-2.30;96.50;;;;;;5084040;28;20532;-71
2022/12/13 04:02:26;;;;;;;6.97;4.20;;;-2.30;96.90;;;;;;5080821;28;20062;-69
2022/12/13 04:04:52;;;;;;;9.63;3.73;;;-2.30;97.50;;;;;;5073780;28;20052;-67
2022/12/13 04:07:18;;;;;;;8.03;3.53;;;-2.30;97.20;;;;;;5076941;28;20032;-67
2022/12/13 04:09:43;;;;;;;6.87;3.80;;;-2.30;96.60;;;;;;5077203;28;20028;-68
2022/12/13 04:14:53;;;;;;;9.90;3.85;;;-2.50;98.40;;;;;;5082614;28;20484;-68
2022/12/13 04:17:19;;;;;;;8.30;3.80;;;-2.40;97.30;;;;;;5064658;28;20057;-67
2022/12/13 04:19:45;;;;;;;5.40;2.97;;;-2.40;96.30;;;;;;5075465;28;20056;-67
2022/12/13 04:22:10;;;;;;;8.77;3.43;;;-2.40;96.00;;;;;;5069814;28;20450;-67
2022/12/13 04:24:36;;;;;;;8.13;3.67;;;-2.40;96.10;;;;;;5075118;28;20376;-67
2022/12/13 04:27:02;;;;;;;8.27;4.10;;;-2.30;96.20;;;;;;5069701;28;20478;-69
2022/12/13 04:29:29;;;;;;;6.17;3.73;;;-2.30;96.30;;;;;;5063545;28;20819;-69
2022/12/13 04:31:55;;;;;;;8.83;3.30;;;-2.30;96.30;;;;;;5063439;28;20024;-70
2022/12/13 04:34:20;;;;;;;7.70;4.07;;;-2.30;96.00;;;;;;5073413;28;20034;-69
2022/12/13 04:36:46;;;;;;;7.60;3.63;;;-2.40;95.70;;;;;;5080214;28;20093;-69
2022/12/13 04:39:12;;;;;;;4.50;2.60;;;-2.40;95.00;;;;;;5080183;28;20024;-70
2022/12/13 04:41:38;;;;;;;5.47;2.50;;;-2.40;94.60;;;;;;5071256;28;20090;-70
2022/12/13 04:44:06;;;;;;;6.87;2.47;;;-2.50;94.40;;;;;;5070796;28;20056;-69
2022/12/13 04:46:32;;;;;;;5.87;2.60;;;-2.50;94.40;;;;;;5065216;28;20043;-70
2022/12/13 04:48:58;;;;;;;4.50;2.03;;;-2.60;94.00;;;;;;5071402;28;20030;-69
2022/12/13 04:51:24;;;;;;;6.00;2.73;;;-2.50;94.40;;;;;;5084886;28;20115;-69
2022/12/13 04:53:49;;;;;;;6.07;2.67;;;-2.50;94.20;;;;;;5079515;28;20055;-69
2022/12/13 04:56:15;;;;;;;7.70;2.30;;;-2.50;94.00;;;;;;5071503;28;20039;-69
2022/12/13 04:58:41;;;;;;;7.80;2.40;;;-2.50;94.00;;;;;;5068408;28;20755;-69
2022/12/13 05:01:08;;;;;;;7.37;2.10;;;-2.40;94.50;;;;;;5076749;28;20028;-69
2022/12/13 05:03:34;;;;;;;5.47;2.57;;;-2.40;94.80;;;;;;5070293;28;20044;-69
2022/12/13 05:06:07;;;;;;;5.47;2.80;;;-2.40;95.30;;;;;;5063330;28;20028;-70
2022/12/13 05:08:34;;;;;;;8.17;2.77;;;-2.50;94.80;;;;;;5065531;28;20475;-69
2022/12/13 05:11:00;;;;;;;4.30;2.07;;;-2.40;94.30;;;;;;5063969;28;20123;-69
2022/12/13 05:13:26;;;;;;;5.80;2.30;;;-2.40;94.70;;;;;;5065801;28;20111;-69
2022/12/13 05:15:56;;;;;;;5.83;2.07;;;-2.30;95.00;;;;;;5072713;28;20063;-69
2022/12/13 05:18:22;;;;;;;6.60;2.60;;;-2.30;94.90;;;;;;5067372;28;20060;-69
2022/12/13 05:20:49;;;;;;;7.67;2.60;;;-2.30;95.20;;;;;;5065258;28;20055;-69
2022/12/13 05:23:16;;;;;;;7.43;2.50;;;-2.40;95.70;;;;;;5065990;28;20037;-69
2022/12/13 05:25:42;;;;;;;5.97;2.57;;;-2.30;95.50;;;;;;5078909;28;20032;-70
2022/12/13 05:28:07;;;;;;;4.73;2.80;;;-2.20;94.70;;;;;;5071317;28;20024;-69
2022/12/13 05:30:33;;;;;;;8.03;2.97;;;-2.20;95.00;;;;;;5073586;28;20031;-69
2022/12/13 05:32:58;;;;;;;5.63;2.63;;;-2.10;94.90;;;;;;5083700;28;20016;-69
2022/12/13 05:35:24;;;;;;;7.25;4.00;;;-2.10;95.40;;;;;;5073920;28;20036;-69
2022/12/13 05:37:53;;;;;;;4.70;2.97;;;-2.20;95.30;;;;;;5061519;28;20042;-70
2022/12/13 05:40:19;;;;;;;5.53;2.30;;;-2.30;96.10;;;;;;5079606;28;20035;-67
2022/12/13 05:42:44;;;;;;;5.50;2.10;;;-2.30;95.00;;;;;;5064405;28;20036;-67
2022/12/13 05:45:11;;;;;;;5.78;2.33;;;-2.30;94.40;;;;;;5067780;28;20531;-67
2022/12/13 05:47:36;;;;;;;7.70;4.20;;;-2.30;94.60;;;;;;5071476;28;20078;-67
2022/12/13 05:50:03;;;;;;;5.17;2.10;;;-2.20;94.60;;;;;;5071285;28;20020;-67
2022/12/13 05:52:29;;;;;;;4.70;2.13;;;-2.20;94.60;;;;;;5074198;28;20035;-70
2022/12/13 05:54:55;;;;;;;5.53;1.90;;;-2.20;94.10;;;;;;5081296;28;20040;-70
2022/12/13 05:57:21;;;;;;;4.73;2.13;;;-2.30;93.40;;;;;;5092193;28;20430;-69
2022/12/13 05:59:47;;;;;;;5.03;1.93;;;-2.30;93.40;;;;;;5068348;28;20032;-69
2022/12/13 06:02:13;;;;;;;9.93;3.43;;;-2.30;93.30;;;;;;5070018;28;20483;-69
2022/12/13 06:04:38;;;;;;;3.70;1.80;;;-2.20;93.60;;;;;;5071286;28;20147;-70
2022/12/13 06:07:04;;;;;;;5.47;2.23;;;-2.30;93.10;;;;;;5073009;28;20032;-69
2022/12/13 06:09:30;;;;;;;2.97;1.90;;;-2.20;93.00;;;;;;5063237;28;20060;-69
2022/12/13 06:11:55;;;;;;;5.27;2.50;;;-2.10;93.30;;;;;;5062402;28;20037;-70
2022/12/13 06:14:21;;;;;;;3.97;1.80;;;-2.20;93.10;;;;;;5072612;28;20031;-69
2022/12/13 06:16:47;;;;;;;4.50;1.77;;;-2.20;93.10;;;;;;5070949;28;20075;-69
2022/12/13 06:19:12;;;;;;;3.90;2.00;;;-2.10;93.10;;;;;;5062611;28;20029;-69
2022/12/13 06:21:38;;;;;;;3.90;1.70;;;-2.00;93.00;;;;;;5068144;28;20025;-69
2022/12/13 06:24:04;;;;;;;5.33;2.37;;;-2.20;93.10;;;;;;5062336;28;20556;-69
2022/12/13 06:26:30;;;;;;;3.87;1.83;;;-2.10;92.80;;;;;;5068333;28;20051;-70
2022/12/13 06:28:56;;;;;;;4.30;1.83;;;-2.10;93.20;;;;;;5078909;28;20047;-70
2022/12/13 06:31:21;;;;;;;5.70;2.07;;;-2.10;92.60;;;;;;5065103;28;20111;-69
2022/12/13 06:33:47;;;;;;;4.03;1.50;;;-2.10;92.40;;;;;;5075623;28;20039;-69
2022/12/13 06:36:13;;;;;;;7.13;1.83;;;-2.10;92.60;;;;;;5069798;28;20067;-69
2022/12/13 06:38:38;;;;;;;6.37;1.60;;;-1.50;95.90;;;;;;5069541;28;20028;-70
2022/12/13 06:41:13;;;;;;;5.63;2.00;;;-1.70;92.90;;;;;;5061564;28;20090;-69
2022/12/13 06:43:43;;;;;;;4.13;1.70;;;-1.80;92.70;;;;;;5073268;28;20089;-69
2022/12/13 06:46:10;;;;;;;3.73;1.77;;;-1.80;92.30;;;;;;5064827;28;20032;-70
2022/12/13 06:48:35;;;;;;;3.60;1.90;;;-1.80;92.60;;;;;;5070428;28;20074;-70
2022/12/13 06:51:03;;;;;;;4.35;1.85;;;-1.90;93.30;;;;;;5060837;28;20024;-70
2022/12/13 06:53:29;;;;;;;4.83;1.70;;;-1.80;93.40;;;;;;5070060;28;20644;-69
2022/12/13 06:55:55;;;;;;;4.73;1.80;;;-2.00;94.40;;;;;;5077777;28;20474;-69
2022/12/13 06:58:21;;;;;;;6.37;2.03;;;-2.10;93.90;;;;;;5060995;28;20040;-70
2022/12/13 07:00:47;;;;;;;3.50;1.77;;;-2.10;93.10;;;;;;5072756;28;20035;-69
2022/12/13 07:03:13;;;;;;;3.80;1.40;;;-1.90;93.50;;;;;;5079251;28;20047;-70
2022/12/13 07:05:38;;;;;;;6.47;2.13;;;-1.90;93.60;;;;;;5076802;28;20027;-69
2022/12/13 07:08:04;;;;;;;8.53;3.23;;;-1.90;93.60;;;;;;5075863;28;20116;-69
2022/12/13 07:10:31;;;;;;;6.40;3.17;;;-1.80;93.60;;;;;;5074385;28;20067;-69
2022/12/13 07:12:57;;;;;;;5.10;2.20;;;-1.70;93.40;;;;;;5073447;28;20028;-69
2022/12/13 07:15:23;;;;;;;7.40;3.13;;;-1.70;93.40;;;;;;5071118;28;20483;-69
2022/12/13 07:17:50;;;;;;;6.33;2.57;;;-1.60;93.70;;;;;;5064291;28;20044;-69
2022/12/13 07:20:17;;;;;;;4.60;2.17;;;-1.70;93.70;;;;;;5074653;28;20059;-69
2022/12/13 07:22:43;;;;;;;5.10;1.97;;;-1.90;93.60;;;;;;5075856;28;20039;-69
2022/12/13 07:25:09;;;;;;;5.93;2.73;;;-1.90;93.90;;;;;;5082415;28;20024;-70
2022/12/13 07:27:35;;;;;;;5.40;2.50;;;-2.00;94.10;;;;;;5076645;28;20029;-70
2022/12/13 07:30:02;;;;;;;6.60;2.80;;;-2.00;94.40;;;;;;5066000;28;20090;-69
2022/12/13 07:32:28;;;;;;;7.97;2.50;;;-2.00;94.00;;;;;;5068982;28;20028;-70
2022/12/13 07:34:53;;;;;;;5.30;2.57;;;-1.90;93.60;;;;;;5063658;28;20582;-70
2022/12/13 07:37:19;;;;;;;4.93;2.10;;;-1.90;93.50;;;;;;5074929;28;20032;-70
2022/12/13 07:39:45;;;;;;;4.40;2.03;;;-1.90;93.40;;;;;;5066180;28;20032;-69
2022/12/13 07:42:11;;;;;;;5.60;2.70;;;-1.80;93.30;;;;;;5070470;28;20097;-69
2022/12/13 07:44:36;;;;;;;4.50;2.10;;;-1.70;93.80;;;;;;5069363;28;20920;-69
2022/12/13 07:47:02;;;;;;;8.13;2.97;;;-1.60;94.10;;;;;;5081655;28;20066;-69
2022/12/13 07:49:28;;;;;;;5.00;2.30;;;-1.70;94.70;;;;;;5066917;28;20036;-69
2022/12/13 07:51:53;;;;;;;5.43;2.57;;;-1.60;94.30;;;;;;5073319;28;20494;-69
2022/12/13 07:54:19;;;;;;;5.43;2.23;;;-1.60;94.50;;;;;;5070098;28;20048;-69
2022/12/13 07:56:44;;;;;;;5.97;2.20;;;-1.50;94.60;;;;;;5078081;28;20028;-69
2022/12/13 07:59:10;;;;;;;6.60;2.93;;;-1.40;94.40;;;;;;5075910;28;20028;-69
2022/12/13 08:01:36;;;;;;;6.00;2.90;;;-1.40;94.10;;;;;;5075058;28;20106;-69
2022/12/13 08:04:03;;;;;;;6.40;2.83;;;-1.50;93.90;;;;;;5077126;28;20036;-69
2022/12/13 08:06:33;;;;;;;7.57;2.47;;;-1.40;94.00;;;;;;5070796;28;20028;-69
2022/12/13 08:08:58;;;;;;;4.80;2.60;;;-1.40;94.10;;;;;;5069719;28;20024;-69
2022/12/13 08:11:24;;;;;;;4.53;2.23;;;-1.40;93.90;;;;;;5075439;28;20032;-69
2022/12/13 08:13:52;;;;;;;3.83;1.93;;;-1.30;93.40;;;;;;5075192;28;20020;-69
2022/12/13 08:16:18;;;;;;;3.67;2.07;;;-1.30;92.90;;;;;;5071740;28;20667;-69
2022/12/13 08:18:46;;;;;;;5.35;2.65;;;-1.30;93.40;;;;;;5069419;28;20104;-70
2022/12/13 08:21:13;;;;;;;5.63;2.43;;;-1.40;93.20;;;;;;5070317;28;20017;-69
2022/12/13 08:23:38;;;;;;;7.67;2.07;;;-1.50;93.70;;;;;;5065992;28;20040;-69
2022/12/13 08:26:05;;;;;;;3.67;1.60;;;-1.40;93.10;;;;;;5063292;28;20136;-69
2022/12/13 08:28:32;;;;;;;4.35;1.80;;;-1.50;92.60;;;;;;5068855;28;20028;-69
2022/12/13 08:31:06;;;;;;;3.40;1.57;;;-1.60;92.10;;;;;;5069056;28;20103;-69
2022/12/13 08:33:35;;;;;;;4.85;1.77;;;-1.60;92.60;;;;;;5069443;28;20107;-69
2022/12/13 08:36:08;;;;;;;4.93;1.83;;;-1.50;92.10;;;;;;5082711;28;20101;-70
2022/12/13 08:38:34;;;;;;;5.50;2.13;;;-1.50;92.00;;;;;;5069462;28;20533;-69
2022/12/13 08:40:59;;;;;;;6.87;2.33;;;-1.40;92.70;;;;;;5077137;28;20017;-69
2022/12/13 08:43:25;;;;;;;5.10;1.80;;;-1.50;92.40;;;;;;5062558;28;20479;-69
2022/12/13 08:45:51;;;;;;;4.80;1.70;;;-1.50;91.90;;;;;;5069264;28;20043;-69
2022/12/13 08:48:17;;;;;;;5.97;1.95;;;-1.50;92.00;;;;;;5070118;28;20652;-69
2022/12/13 08:50:42;;;;;;;3.50;1.73;;;-1.50;92.00;;;;;;5070773;28;21013;-69
2022/12/13 08:53:08;;;;;;;12.50;7.13;;;-1.60;92.40;;;;;;5075874;28;20036;-68
2022/12/13 08:55:35;;;;;;;12.37;4.77;;;-1.30;92.50;;;;;;5077207;28;20035;-70
2022/12/13 08:58:05;;;;;;;14.13;9.00;;;-0.50;98.70;;;;;;5062590;28;20036;-68
2022/12/13 09:00:31;;;;;;;5.78;3.42;;;-0.60;91.70;;;;;;5067789;28;20479;-68
2022/12/13 09:02:57;;;;;;;4.68;2.33;;;-0.80;91.70;;;;;;5069141;28;20033;-68
2022/12/13 09:05:22;;;;;;;3.63;1.83;;;-1.10;91.80;;;;;;5061632;28;20349;-68
2022/12/13 09:07:48;;;;;;;4.27;1.80;;;-1.20;91.60;;;;;;5071473;28;20034;-68
2022/12/13 09:10:14;;;;;;;4.80;1.83;;;-1.40;91.80;;;;;;5075333;28;20028;-68
2022/12/13 09:12:41;;;;;;;9.17;2.00;;;-1.40;91.70;;;;;;5074084;28;20035;-68
2022/12/13 09:15:07;;;;;;;3.93;1.57;;;-1.30;91.90;;;;;;5062363;28;20524;-68
2022/12/13 09:17:33;;;;;;;16.90;3.73;;;-1.20;91.10;;;;;;5069141;28;20876;-68
2022/12/13 09:19:58;;;;;;;3.57;1.70;;;-1.20;91.20;;;;;;5067364;28;20086;-68
2022/12/13 09:22:25;;;;;;;7.53;4.10;;;-1.20;92.30;;;;;;5062014;28;20090;-68
2022/12/13 09:24:50;;;;;;;19.03;10.13;;;-1.10;92.30;;;;;;5075661;28;20490;-72
2022/12/13 09:27:16;;;;;;;23.63;12.93;;;-1.00;92.20;;;;;;5068969;28;20025;-68
2022/12/13 09:29:42;;;;;;;24.08;14.73;;;-0.90;92.30;;;;;;5070443;28;20474;-69
2022/12/13 09:32:07;;;;;;;8.33;4.63;;;-0.80;92.30;;;;;;5062783;28;20036;-68
2022/12/13 09:34:33;;;;;;;8.43;4.55;;;-0.80;91.70;;;;;;5073266;28;20024;-69
2022/12/13 09:36:59;;;;;;;21.02;9.93;;;-0.70;91.50;;;;;;5079270;28;20032;-69
2022/12/13 09:39:24;;;;;;;13.03;6.57;;;-0.10;92.00;;;;;;5061717;28;20036;-69
2022/12/13 09:41:54;;;;;;;5.40;2.90;;;-0.50;92.00;;;;;;5064225;28;20056;-69
2022/12/13 09:44:40;;;;;;;6.40;2.25;;;-0.70;92.00;;;;;;5064163;28;20528;-69
2022/12/13 09:47:15;;;;;;;17.48;6.55;;;-0.80;92.00;;;;;;5071967;28;20090;-69
2022/12/13 09:49:43;;;;;;;7.85;3.28;;;-1.00;92.10;;;;;;5061458;28;20035;-70
2022/12/13 09:52:15;;;;;;;6.78;2.58;;;-1.00;91.40;;;;;;5075065;28;20107;-69
2022/12/13 09:54:41;;;;;;;3.83;1.90;;;-1.10;91.70;;;;;;5068196;28;20056;-69
2022/12/13 09:57:30;;;;;;;3.47;1.50;;;-1.00;91.50;;;;;;5078025;28;20046;-70
2022/12/13 09:59:56;;;;;;;3.38;1.38;;;-1.10;90.80;;;;;;5075347;28;20168;-69
2022/12/13 10:02:30;;;;;;;3.97;2.00;;;-1.00;91.50;;;;;;5061054;28;20116;-69
2022/12/13 10:05:21;;;;;;;5.00;2.60;;;-1.00;90.80;;;;;;5073975;28;20046;-69
2022/12/13 10:07:48;;;;;;;4.53;1.90;;;-0.90;90.70;;;;;;5070490;28;20020;-70
2022/12/13 10:10:14;;;;;;;6.27;1.83;;;-1.00;90.40;;;;;;5068195;28;20491;-70
2022/12/13 10:12:42;;;;;;;4.10;1.83;;;-1.00;90.90;;;;;;5070706;28;20032;-71
2022/12/13 10:15:12;;;;;;;8.43;2.03;;;-1.00;90.70;;;;;;5064516;28;20393;-70
2022/12/13 10:17:47;;;;;;;3.75;1.77;;;-1.00;91.00;;;;;;5064141;28;20410;-70
2022/12/13 10:20:19;;;;;;;4.93;2.13;;;-1.00;90.60;;;;;;5071106;28;20074;-70
2022/12/13 10:22:46;;;;;;;5.07;1.87;;;-0.90;90.90;;;;;;5075554;28;20034;-70
2022/12/13 10:25:12;;;;;;;7.07;1.90;;;-1.00;91.70;;;;;;5067940;28;20139;-70
2022/12/13 10:27:47;;;;;;;5.53;1.83;;;-0.90;91.60;;;;;;5074740;28;20073;-70
2022/12/13 10:30:23;;;;;;;5.70;2.05;;;-1.00;91.40;;;;;;5068443;28;20037;-70
2022/12/13 10:32:57;;;;;;;3.80;2.07;;;-1.00;91.80;;;;;;5068583;28;20047;-70
2022/12/13 10:35:29;;;;;;;5.93;2.45;;;-0.90;91.80;;;;;;5068550;28;20036;-70
2022/12/13 10:37:58;;;;;;;4.13;2.00;;;-0.80;91.70;;;;;;5065200;28;20024;-70
2022/12/13 10:40:23;;;;;;;6.77;2.90;;;-0.70;91.60;;;;;;5069265;28;20056;-70
2022/12/13 10:43:15;;;;;;;8.33;3.40;;;-0.60;91.70;;;;;;5072196;28;20028;-71
2022/12/13 10:45:43;;;;;;;7.53;2.30;;;-0.70;91.70;;;;;;5078329;28;20021;-71
2022/12/13 10:48:32;;;;;;;4.63;2.43;;;-0.90;90.70;;;;;;5064034;28;20032;-71
2022/12/13 10:51:06;;;;;;;3.87;1.53;;;-0.90;91.30;;;;;;5064509;28;20048;-70
2022/12/13 10:53:34;;;;;;;4.97;2.13;;;-0.90;90.60;;;;;;5071157;28;20056;-70
2022/12/13 10:56:01;;;;;;;5.00;2.15;;;-0.80;91.00;;;;;;5064324;28;20040;-70
2022/12/13 10:58:39;;;;;;;7.03;1.77;;;-0.70;91.50;;;;;;5067554;28;20028;-70
2022/12/13 11:01:31;;;;;;;14.40;6.77;;;-0.70;91.20;;;;;;5068753;28;20036;-70
2022/12/13 11:04:18;;;;;;;5.20;2.20;;;-0.60;91.40;;;;;;5066934;28;20052;-70
2022/12/13 11:06:46;;;;;;;4.88;2.10;;;-0.70;90.40;;;;;;5067832;28;20103;-70
2022/12/13 11:09:22;;;;;;;7.80;2.58;;;-0.60;90.60;;;;;;5081516;28;20028;-71
2022/12/13 11:11:53;;;;;;;9.27;4.65;;;-0.50;90.90;;;;;;5076830;28;20055;-70
2022/12/13 11:14:22;;;;;;;6.50;2.92;;;-0.50;90.70;;;;;;5080147;28;20112;-70
2022/12/13 11:16:56;;;;;;;3.55;1.50;;;-0.60;90.10;;;;;;5078215;28;20106;-70
2022/12/13 11:19:34;;;;;;;2.77;1.47;;;-0.90;88.70;;;;;;5066836;28;20028;-70
2022/12/13 11:22:00;;;;;;;3.67;1.52;;;-0.80;90.70;;;;;;5073835;28;20036;-70
2022/12/13 11:24:30;;;;;;;3.28;1.48;;;-0.70;90.60;;;;;;5066587;28;20427;-71
2022/12/13 11:27:00;;;;;;;4.57;1.80;;;-0.70;90.30;;;;;;5075237;28;20047;-70
2022/12/13 11:29:54;;;;;;;4.60;1.98;;;-0.70;90.00;;;;;;5077705;28;20020;-71
2022/12/13 11:32:28;;;;;;;6.82;2.00;;;-0.70;90.40;;;;;;5074908;28;20028;-70
2022/12/13 11:35:11;;;;;;;5.43;2.17;;;-0.70;90.00;;;;;;5074620;28;20056;-70
2022/12/13 11:37:40;;;;;;;4.40;1.80;;;-0.70;89.50;;;;;;5066232;28;20056;-70
2022/12/13 11:40:26;;;;;;;5.03;2.28;;;-0.60;90.00;;;;;;5073394;28;20031;-70
2022/12/13 11:43:07;;;;;;;5.57;1.98;;;-0.50;90.00;;;;;;5071526;28;20070;-70
2022/12/13 11:45:39;;;;;;;3.40;1.60;;;-0.60;89.60;;;;;;5069555;28;20047;-70
2022/12/13 11:48:08;;;;;;;15.10;7.00;;;-0.50;90.10;;;;;;5068347;28;20070;-71
2022/12/13 11:50:39;;;;;;;6.93;2.47;;;-0.50;90.30;;;;;;5079291;28;20066;-70
2022/12/13 11:53:33;;;;;;;3.47;1.67;;;-0.50;89.80;;;;;;5073588;28;20020;-70
2022/12/13 11:56:11;;;;;;;5.22;1.98;;;-0.50;89.60;;;;;;5073645;28;20031;-71
2022/12/13 11:59:00;;;;;;;8.75;3.15;;;-0.70;90.20;;;;;;5065223;28;20096;-71
2022/12/13 12:01:33;;;;;;;4.60;2.13;;;-0.40;90.50;;;;;;5066911;28;20642;-71
2022/12/13 12:04:25;;;;;;;4.78;2.13;;;-0.40;90.60;;;;;;5066858;28;20036;-71
2022/12/13 12:07:01;;;;;;;4.07;2.08;;;-0.40;89.80;;;;;;5034409;28;20355;-70
2022/12/13 12:09:28;;;;;;;4.18;1.85;;;-0.30;89.00;;;;;;5074396;28;20062;-70
2022/12/13 12:11:59;;;;;;;6.35;2.55;;;-0.20;89.60;;;;;;5082465;28;20027;-71
2022/12/13 12:14:51;;;;;;;4.65;2.20;;;-0.30;88.40;;;;;;5067681;28;20485;-70
2022/12/13 12:17:22;;;;;;;3.30;2.13;;;-0.20;89.60;;;;;;5072105;28;20487;-70
2022/12/13 12:19:52;;;;;;;3.85;1.73;;;-0.10;90.50;;;;;;5066503;28;20035;-70
2022/12/13 12:22:36;;;;;;;4.10;1.73;;;-0.10;89.80;;;;;;5075711;28;20098;-71
2022/12/13 12:25:13;;;;;;;10.35;3.70;;;-0.10;89.00;;;;;;5067243;28;20036;-71
2022/12/13 12:27:44;;;;;;;23.65;15.35;;;0.00;90.20;;;;;;5065119;28;20020;-71
2022/12/13 12:30:19;;;;;;;22.60;14.73;;;-0.10;90.10;;;;;;5081051;28;20032;-71
2022/12/13 12:33:12;;;;;;;94.32;49.03;;;-0.20;90.30;;;;;;5073153;28;20111;-71
2022/12/13 12:35:56;;;;;;;11.73;6.10;;;-0.20;90.30;;;;;;5073282;28;20494;-71
2022/12/13 12:38:48;;;;;;;11.38;2.47;;;-0.30;90.40;;;;;;5084499;28;20596;-71
2022/12/13 12:41:25;;;;;;;3.47;1.70;;;-0.30;90.40;;;;;;5066392;28;20470;-71
2022/12/13 12:44:03;;;;;;;3.63;1.70;;;-0.20;89.10;;;;;;5069355;28;20035;-71
2022/12/13 12:46:52;;;;;;;12.85;5.45;;;-0.10;90.20;;;;;;5074708;28;20029;-71
2022/12/13 12:49:45;;;;;;;9.05;3.78;;;-0.20;89.40;;;;;;5072716;28;20485;-71
2022/12/13 12:52:37;;;;;;;4.28;1.85;;;-0.10;90.00;;;;;;5067882;28;20387;-70
2022/12/13 12:55:32;;;;;;;2.95;1.40;;;-0.10;88.30;;;;;;5067777;28;20174;-71
2022/12/13 12:58:09;;;;;;;5.30;1.67;;;-0.20;88.90;;;;;;5067148;28;20032;-70
2022/12/13 13:00:58;;;;;;;4.13;1.70;;;-0.30;89.10;;;;;;5072734;28;20446;-71
2022/12/13 13:03:26;;;;;;;4.43;1.75;;;-0.20;90.10;;;;;;5071862;28;20060;-71
2022/12/13 13:05:58;;;;;;;2.70;1.40;;;-0.10;88.70;;;;;;5065668;28;20035;-71